sensor_id;sensor_type;location;lat;lon;timestamp;P1;durP1;ratioP1;P2;durP2;ratioP2
37097;SDS011;63608;49.572;12.348;2023-04-25T00:00:56;7.70;;;4.77;;
37097;SDS011;63608;49.572;12.348;2023-04-25T00:02:58;12.90;;;5.27;;
37097;SDS011;63608;49.572;12.348;2023-04-25T00:05:02;5.67;;;4.53;;
37097;SDS011;63608;49.572;12.348;2023-04-25T00:07:05;5.37;;;4.87;;
37097;SDS011;63608;49.572;12.348;2023-04-25T00:09:07;4.93;;;4.63;;
37097;SDS011;63608;49.572;12.348;2023-04-25T00:11:10;5.27;;;4.87;;
37097;SDS011;63608;49.572;12.348;2023-04-25T00:13:12;5.00;;;4.60;;
37097;SDS011;63608;49.572;12.348;2023-04-25T00:15:15;5.53;;;5.03;;
37097;SDS011;63608;49.572;12.348;2023-04-25T00:17:17;4.50;;;4.20;;
37097;SDS011;63608;49.572;12.348;2023-04-25T00:19:20;5.00;;;4.70;;
37097;SDS011;63608;49.572;12.348;2023-04-25T00:21:23;4.90;;;4.50;;
37097;SDS011;63608;49.572;12.348;2023-04-25T00:23:26;5.33;;;4.93;;
37097;SDS011;63608;49.572;12.348;2023-04-25T00:25:28;5.10;;;4.70;;
37097;SDS011;63608;49.572;12.348;2023-04-25T00:27:30;5.10;;;4.80;;
37097;SDS011;63608;49.572;12.348;2023-04-25T00:29:32;4.90;;;4.60;;
37097;SDS011;63608;49.572;12.348;2023-04-25T00:31:35;4.83;;;4.53;;
37097;SDS011;63608;49.572;12.348;2023-04-25T00:33:37;5.17;;;4.87;;
37097;SDS011;63608;49.572;12.348;2023-04-25T00:35:39;5.70;;;4.60;;
37097;SDS011;63608;49.572;12.348;2023-04-25T00:37:43;5.57;;;5.07;;
37097;SDS011;63608;49.572;12.348;2023-04-25T00:39:45;5.10;;;4.70;;
37097;SDS011;63608;49.572;12.348;2023-04-25T00:41:47;4.60;;;4.30;;
37097;SDS011;63608;49.572;12.348;2023-04-25T00:43:53;5.53;;;5.03;;
37097;SDS011;63608;49.572;12.348;2023-04-25T00:45:56;5.10;;;4.60;;
37097;SDS011;63608;49.572;12.348;2023-04-25T00:47:58;4.73;;;4.43;;
37097;SDS011;63608;49.572;12.348;2023-04-25T00:50:01;5.50;;;4.43;;
37097;SDS011;63608;49.572;12.348;2023-04-25T00:52:03;5.10;;;4.70;;
37097;SDS011;63608;49.572;12.348;2023-04-25T00:54:07;4.30;;;3.90;;
37097;SDS011;63608;49.572;12.348;2023-04-25T00:56:10;4.37;;;4.07;;
37097;SDS011;63608;49.572;12.348;2023-04-25T00:58:12;5.20;;;4.90;;
37097;SDS011;63608;49.572;12.348;2023-04-25T01:00:14;5.13;;;4.70;;
37097;SDS011;63608;49.572;12.348;2023-04-25T01:02:17;4.70;;;4.40;;
37097;SDS011;63608;49.572;12.348;2023-04-25T01:04:20;6.50;;;5.90;;
37097;SDS011;63608;49.572;12.348;2023-04-25T01:06:23;6.90;;;6.20;;
37097;SDS011;63608;49.572;12.348;2023-04-25T01:08:25;4.97;;;4.53;;
37097;SDS011;63608;49.572;12.348;2023-04-25T01:10:29;4.70;;;4.40;;
37097;SDS011;63608;49.572;12.348;2023-04-25T01:12:31;4.10;;;3.90;;
37097;SDS011;63608;49.572;12.348;2023-04-25T01:14:33;5.10;;;4.67;;
37097;SDS011;63608;49.572;12.348;2023-04-25T01:16:36;5.07;;;4.67;;
37097;SDS011;63608;49.572;12.348;2023-04-25T01:18:38;4.47;;;4.10;;
37097;SDS011;63608;49.572;12.348;2023-04-25T01:20:40;4.90;;;4.50;;
37097;SDS011;63608;49.572;12.348;2023-04-25T01:22:45;5.00;;;4.60;;
37097;SDS011;63608;49.572;12.348;2023-04-25T01:24:47;6.83;;;5.83;;
37097;SDS011;63608;49.572;12.348;2023-04-25T01:26:49;4.47;;;4.07;;
37097;SDS011;63608;49.572;12.348;2023-04-25T01:28:53;4.77;;;4.43;;
37097;SDS011;63608;49.572;12.348;2023-04-25T01:30:55;6.87;;;6.27;;
37097;SDS011;63608;49.572;12.348;2023-04-25T01:32:58;8.20;;;7.13;;
37097;SDS011;63608;49.572;12.348;2023-04-25T01:35:00;6.87;;;5.40;;
37097;SDS011;63608;49.572;12.348;2023-04-25T01:37:03;7.57;;;6.87;;
37097;SDS011;63608;49.572;12.348;2023-04-25T01:39:06;9.60;;;6.33;;
37097;SDS011;63608;49.572;12.348;2023-04-25T01:41:09;7.30;;;6.70;;
37097;SDS011;63608;49.572;12.348;2023-04-25T01:43:11;7.43;;;6.03;;
37097;SDS011;63608;49.572;12.348;2023-04-25T01:45:14;7.10;;;6.50;;
37097;SDS011;63608;49.572;12.348;2023-04-25T01:47:17;6.10;;;5.53;;
37097;SDS011;63608;49.572;12.348;2023-04-25T01:49:19;6.70;;;6.10;;
37097;SDS011;63608;49.572;12.348;2023-04-25T01:51:21;8.23;;;6.27;;
37097;SDS011;63608;49.572;12.348;2023-04-25T01:53:23;6.90;;;6.17;;
37097;SDS011;63608;49.572;12.348;2023-04-25T01:55:27;5.80;;;5.30;;
37097;SDS011;63608;49.572;12.348;2023-04-25T01:57:30;5.73;;;5.30;;
37097;SDS011;63608;49.572;12.348;2023-04-25T01:59:32;6.87;;;6.27;;
37097;SDS011;63608;49.572;12.348;2023-04-25T02:01:34;6.50;;;5.90;;
37097;SDS011;63608;49.572;12.348;2023-04-25T02:03:36;6.50;;;5.77;;
37097;SDS011;63608;49.572;12.348;2023-04-25T02:05:39;6.10;;;5.60;;
37097;SDS011;63608;49.572;12.348;2023-04-25T02:07:41;6.20;;;5.70;;
37097;SDS011;63608;49.572;12.348;2023-04-25T02:09:44;6.73;;;6.23;;
37097;SDS011;63608;49.572;12.348;2023-04-25T02:11:47;7.13;;;6.43;;
37097;SDS011;63608;49.572;12.348;2023-04-25T02:13:50;7.73;;;6.97;;
37097;SDS011;63608;49.572;12.348;2023-04-25T02:15:52;6.17;;;5.63;;
37097;SDS011;63608;49.572;12.348;2023-04-25T02:17:54;6.63;;;6.03;;
37097;SDS011;63608;49.572;12.348;2023-04-25T02:19:56;6.67;;;6.03;;
37097;SDS011;63608;49.572;12.348;2023-04-25T02:21:58;6.17;;;5.67;;
37097;SDS011;63608;49.572;12.348;2023-04-25T02:24:00;6.10;;;5.50;;
37097;SDS011;63608;49.572;12.348;2023-04-25T02:26:03;6.77;;;6.27;;
37097;SDS011;63608;49.572;12.348;2023-04-25T02:28:07;7.00;;;6.30;;
37097;SDS011;63608;49.572;12.348;2023-04-25T02:30:09;7.03;;;6.43;;
37097;SDS011;63608;49.572;12.348;2023-04-25T02:32:12;6.23;;;5.63;;
37097;SDS011;63608;49.572;12.348;2023-04-25T02:34:14;7.37;;;6.67;;
37097;SDS011;63608;49.572;12.348;2023-04-25T02:36:16;7.20;;;6.60;;
37097;SDS011;63608;49.572;12.348;2023-04-25T02:38:18;7.30;;;6.57;;
37097;SDS011;63608;49.572;12.348;2023-04-25T02:40:20;7.20;;;6.50;;
37097;SDS011;63608;49.572;12.348;2023-04-25T02:42:22;7.17;;;6.50;;
37097;SDS011;63608;49.572;12.348;2023-04-25T02:44:26;7.23;;;6.53;;
37097;SDS011;63608;49.572;12.348;2023-04-25T02:46:28;6.83;;;6.13;;
37097;SDS011;63608;49.572;12.348;2023-04-25T02:48:30;7.07;;;6.47;;
37097;SDS011;63608;49.572;12.348;2023-04-25T02:50:33;6.97;;;6.30;;
37097;SDS011;63608;49.572;12.348;2023-04-25T02:52:35;7.47;;;6.70;;
37097;SDS011;63608;49.572;12.348;2023-04-25T02:54:37;8.17;;;7.23;;
37097;SDS011;63608;49.572;12.348;2023-04-25T02:56:39;8.27;;;7.47;;
37097;SDS011;63608;49.572;12.348;2023-04-25T02:58:42;7.33;;;6.63;;
37097;SDS011;63608;49.572;12.348;2023-04-25T03:00:46;8.50;;;7.47;;
37097;SDS011;63608;49.572;12.348;2023-04-25T03:02:48;8.73;;;7.93;;
37097;SDS011;63608;49.572;12.348;2023-04-25T03:04:51;8.93;;;7.80;;
37097;SDS011;63608;49.572;12.348;2023-04-25T03:06:54;8.67;;;7.77;;
37097;SDS011;63608;49.572;12.348;2023-04-25T03:08:56;9.23;;;8.30;;
37097;SDS011;63608;49.572;12.348;2023-04-25T03:10:58;8.43;;;7.63;;
37097;SDS011;63608;49.572;12.348;2023-04-25T03:13:00;10.10;;;8.57;;
37097;SDS011;63608;49.572;12.348;2023-04-25T03:15:03;8.73;;;7.70;;
37097;SDS011;63608;49.572;12.348;2023-04-25T03:17:07;9.03;;;8.13;;
37097;SDS011;63608;49.572;12.348;2023-04-25T03:19:09;8.80;;;7.90;;
37097;SDS011;63608;49.572;12.348;2023-04-25T03:21:11;11.40;;;9.43;;
37097;SDS011;63608;49.572;12.348;2023-04-25T03:23:14;9.23;;;8.33;;
37097;SDS011;63608;49.572;12.348;2023-04-25T03:25:16;11.13;;;8.90;;
37097;SDS011;63608;49.572;12.348;2023-04-25T03:27:18;10.87;;;7.90;;
37097;SDS011;63608;49.572;12.348;2023-04-25T03:29:20;9.07;;;8.13;;
37097;SDS011;63608;49.572;12.348;2023-04-25T03:31:24;10.50;;;8.53;;
37097;SDS011;63608;49.572;12.348;2023-04-25T03:33:28;9.30;;;8.50;;
37097;SDS011;63608;49.572;12.348;2023-04-25T03:35:30;8.33;;;7.53;;
37097;SDS011;63608;49.572;12.348;2023-04-25T03:37:32;9.53;;;8.53;;
37097;SDS011;63608;49.572;12.348;2023-04-25T03:39:35;9.70;;;8.70;;
37097;SDS011;63608;49.572;12.348;2023-04-25T03:41:37;9.10;;;8.20;;
37097;SDS011;63608;49.572;12.348;2023-04-25T03:43:40;9.40;;;8.50;;
37097;SDS011;63608;49.572;12.348;2023-04-25T03:45:42;9.13;;;8.20;;
37097;SDS011;63608;49.572;12.348;2023-04-25T03:47:44;9.37;;;8.37;;
37097;SDS011;63608;49.572;12.348;2023-04-25T03:49:48;8.53;;;7.77;;
37097;SDS011;63608;49.572;12.348;2023-04-25T03:51:52;8.70;;;7.90;;
37097;SDS011;63608;49.572;12.348;2023-04-25T03:53:54;9.40;;;8.30;;
37097;SDS011;63608;49.572;12.348;2023-04-25T03:55:56;9.57;;;8.50;;
37097;SDS011;63608;49.572;12.348;2023-04-25T03:57:58;9.40;;;8.40;;
37097;SDS011;63608;49.572;12.348;2023-04-25T04:00:02;8.50;;;7.60;;
37097;SDS011;63608;49.572;12.348;2023-04-25T04:02:06;9.30;;;8.03;;
37097;SDS011;63608;49.572;12.348;2023-04-25T04:04:08;8.73;;;7.83;;
37097;SDS011;63608;49.572;12.348;2023-04-25T04:06:11;8.73;;;7.83;;
37097;SDS011;63608;49.572;12.348;2023-04-25T04:08:14;8.23;;;7.43;;
37097;SDS011;63608;49.572;12.348;2023-04-25T04:10:16;9.00;;;8.10;;
37097;SDS011;63608;49.572;12.348;2023-04-25T04:12:18;8.77;;;7.87;;
37097;SDS011;63608;49.572;12.348;2023-04-25T04:14:20;8.33;;;7.53;;
37097;SDS011;63608;49.572;12.348;2023-04-25T04:16:23;8.70;;;7.83;;
37097;SDS011;63608;49.572;12.348;2023-04-25T04:18:25;10.00;;;8.17;;
37097;SDS011;63608;49.572;12.348;2023-04-25T04:20:27;8.40;;;7.60;;
37097;SDS011;63608;49.572;12.348;2023-04-25T04:22:31;8.30;;;7.50;;
37097;SDS011;63608;49.572;12.348;2023-04-25T04:24:34;9.07;;;8.17;;
37097;SDS011;63608;49.572;12.348;2023-04-25T04:26:36;8.20;;;7.40;;
37097;SDS011;63608;49.572;12.348;2023-04-25T04:28:38;10.23;;;8.43;;
37097;SDS011;63608;49.572;12.348;2023-04-25T04:30:41;9.10;;;8.20;;
37097;SDS011;63608;49.572;12.348;2023-04-25T04:32:47;8.73;;;7.63;;
37097;SDS011;63608;49.572;12.348;2023-04-25T04:34:49;9.30;;;7.53;;
37097;SDS011;63608;49.572;12.348;2023-04-25T04:36:52;9.47;;;8.50;;
37097;SDS011;63608;49.572;12.348;2023-04-25T04:38:56;8.17;;;7.37;;
37097;SDS011;63608;49.572;12.348;2023-04-25T04:40:58;9.00;;;8.10;;
37097;SDS011;63608;49.572;12.348;2023-04-25T04:43:01;9.10;;;8.20;;
37097;SDS011;63608;49.572;12.348;2023-04-25T04:45:03;9.07;;;8.17;;
37097;SDS011;63608;49.572;12.348;2023-04-25T04:47:06;9.37;;;8.33;;
37097;SDS011;63608;49.572;12.348;2023-04-25T04:49:08;7.93;;;7.13;;
37097;SDS011;63608;49.572;12.348;2023-04-25T04:51:10;9.83;;;8.47;;
37097;SDS011;63608;49.572;12.348;2023-04-25T04:53:13;8.70;;;7.90;;
37097;SDS011;63608;49.572;12.348;2023-04-25T04:55:16;8.97;;;8.10;;
37097;SDS011;63608;49.572;12.348;2023-04-25T04:57:19;9.40;;;7.80;;
37097;SDS011;63608;49.572;12.348;2023-04-25T04:59:21;9.63;;;8.37;;
37097;SDS011;63608;49.572;12.348;2023-04-25T05:01:23;8.47;;;7.53;;
37097;SDS011;63608;49.572;12.348;2023-04-25T05:03:26;10.60;;;8.77;;
37097;SDS011;63608;49.572;12.348;2023-04-25T05:05:28;8.60;;;7.70;;
37097;SDS011;63608;49.572;12.348;2023-04-25T05:07:30;10.93;;;7.90;;
37097;SDS011;63608;49.572;12.348;2023-04-25T05:09:33;8.33;;;7.53;;
37097;SDS011;63608;49.572;12.348;2023-04-25T05:11:36;8.80;;;8.00;;
37097;SDS011;63608;49.572;12.348;2023-04-25T05:13:39;9.83;;;8.50;;
37097;SDS011;63608;49.572;12.348;2023-04-25T05:15:41;8.17;;;7.40;;
37097;SDS011;63608;49.572;12.348;2023-04-25T05:17:43;10.03;;;9.03;;
37097;SDS011;63608;49.572;12.348;2023-04-25T05:19:46;9.73;;;8.73;;
37097;SDS011;63608;49.572;12.348;2023-04-25T05:21:53;10.27;;;8.50;;
37097;SDS011;63608;49.572;12.348;2023-04-25T05:23:56;8.83;;;8.03;;
37097;SDS011;63608;49.572;12.348;2023-04-25T05:26:01;9.80;;;8.40;;
37097;SDS011;63608;49.572;12.348;2023-04-25T05:28:06;9.13;;;8.23;;
37097;SDS011;63608;49.572;12.348;2023-04-25T05:30:09;8.53;;;7.73;;
37097;SDS011;63608;49.572;12.348;2023-04-25T05:32:12;8.97;;;8.10;;
37097;SDS011;63608;49.572;12.348;2023-04-25T05:34:14;8.07;;;7.27;;
37097;SDS011;63608;49.572;12.348;2023-04-25T05:36:19;9.30;;;8.37;;
37097;SDS011;63608;49.572;12.348;2023-04-25T05:38:22;9.07;;;8.07;;
37097;SDS011;63608;49.572;12.348;2023-04-25T05:40:25;9.37;;;8.27;;
37097;SDS011;63608;49.572;12.348;2023-04-25T05:42:28;11.23;;;8.20;;
37097;SDS011;63608;49.572;12.348;2023-04-25T05:44:32;8.63;;;7.83;;
37097;SDS011;63608;49.572;12.348;2023-04-25T05:46:35;8.70;;;7.87;;
37097;SDS011;63608;49.572;12.348;2023-04-25T05:48:38;9.13;;;8.20;;
37097;SDS011;63608;49.572;12.348;2023-04-25T05:50:43;8.63;;;7.93;;
37097;SDS011;63608;49.572;12.348;2023-04-25T05:52:45;15.43;;;12.97;;
37097;SDS011;63608;49.572;12.348;2023-04-25T05:54:49;9.77;;;8.80;;
37097;SDS011;63608;49.572;12.348;2023-04-25T05:56:51;8.67;;;7.80;;
37097;SDS011;63608;49.572;12.348;2023-04-25T05:58:54;9.17;;;8.27;;
37097;SDS011;63608;49.572;12.348;2023-04-25T06:01:00;9.43;;;8.43;;
37097;SDS011;63608;49.572;12.348;2023-04-25T06:03:03;8.37;;;7.57;;
37097;SDS011;63608;49.572;12.348;2023-04-25T06:05:09;9.37;;;8.57;;
37097;SDS011;63608;49.572;12.348;2023-04-25T06:07:12;10.80;;;9.07;;
37097;SDS011;63608;49.572;12.348;2023-04-25T06:09:15;9.90;;;8.90;;
37097;SDS011;63608;49.572;12.348;2023-04-25T06:11:17;8.50;;;7.70;;
37097;SDS011;63608;49.572;12.348;2023-04-25T06:13:21;9.33;;;8.27;;
37097;SDS011;63608;49.572;12.348;2023-04-25T06:15:23;9.67;;;8.77;;
37097;SDS011;63608;49.572;12.348;2023-04-25T06:17:30;8.50;;;7.70;;
37097;SDS011;63608;49.572;12.348;2023-04-25T06:19:32;9.13;;;8.10;;
37097;SDS011;63608;49.572;12.348;2023-04-25T06:21:35;8.43;;;7.60;;
37097;SDS011;63608;49.572;12.348;2023-04-25T06:23:38;9.60;;;8.80;;
37097;SDS011;63608;49.572;12.348;2023-04-25T06:25:41;9.17;;;8.03;;
37097;SDS011;63608;49.572;12.348;2023-04-25T06:27:44;9.17;;;8.27;;
37097;SDS011;63608;49.572;12.348;2023-04-25T06:29:46;8.97;;;8.17;;
37097;SDS011;63608;49.572;12.348;2023-04-25T06:31:49;8.90;;;8.00;;
37097;SDS011;63608;49.572;12.348;2023-04-25T06:33:55;8.97;;;8.07;;
37097;SDS011;63608;49.572;12.348;2023-04-25T06:36:01;9.30;;;8.30;;
37097;SDS011;63608;49.572;12.348;2023-04-25T06:38:06;8.33;;;7.53;;
37097;SDS011;63608;49.572;12.348;2023-04-25T06:40:09;8.87;;;7.97;;
37097;SDS011;63608;49.572;12.348;2023-04-25T06:42:13;9.07;;;8.17;;
37097;SDS011;63608;49.572;12.348;2023-04-25T06:44:17;8.90;;;8.00;;
37097;SDS011;63608;49.572;12.348;2023-04-25T06:46:19;8.33;;;7.53;;
37097;SDS011;63608;49.572;12.348;2023-04-25T06:48:22;8.93;;;8.03;;
37097;SDS011;63608;49.572;12.348;2023-04-25T06:50:27;8.87;;;8.07;;
37097;SDS011;63608;49.572;12.348;2023-04-25T06:52:30;8.93;;;8.03;;
37097;SDS011;63608;49.572;12.348;2023-04-25T06:54:32;9.07;;;8.00;;
37097;SDS011;63608;49.572;12.348;2023-04-25T06:56:35;8.63;;;7.83;;
37097;SDS011;63608;49.572;12.348;2023-04-25T06:58:40;8.80;;;7.90;;
37097;SDS011;63608;49.572;12.348;2023-04-25T07:00:43;9.27;;;8.33;;
37097;SDS011;63608;49.572;12.348;2023-04-25T07:02:46;8.63;;;7.87;;
37097;SDS011;63608;49.572;12.348;2023-04-25T07:04:53;9.17;;;8.30;;
37097;SDS011;63608;49.572;12.348;2023-04-25T07:07:01;9.30;;;8.40;;
37097;SDS011;63608;49.572;12.348;2023-04-25T07:09:04;8.83;;;8.00;;
37097;SDS011;63608;49.572;12.348;2023-04-25T07:11:09;9.70;;;8.40;;
37097;SDS011;63608;49.572;12.348;2023-04-25T07:13:11;8.50;;;7.50;;
37097;SDS011;63608;49.572;12.348;2023-04-25T07:15:14;8.77;;;7.97;;
37097;SDS011;63608;49.572;12.348;2023-04-25T07:17:17;8.73;;;7.93;;
37097;SDS011;63608;49.572;12.348;2023-04-25T07:19:20;8.30;;;7.50;;
37097;SDS011;63608;49.572;12.348;2023-04-25T07:21:24;8.67;;;7.77;;
37097;SDS011;63608;49.572;12.348;2023-04-25T07:23:29;8.57;;;7.77;;
37097;SDS011;63608;49.572;12.348;2023-04-25T07:25:34;8.20;;;7.40;;
37097;SDS011;63608;49.572;12.348;2023-04-25T07:27:38;7.93;;;6.73;;
37097;SDS011;63608;49.572;12.348;2023-04-25T07:29:42;7.67;;;6.10;;
37097;SDS011;63608;49.572;12.348;2023-04-25T07:31:44;9.63;;;6.57;;
37097;SDS011;63608;49.572;12.348;2023-04-25T07:33:48;6.23;;;5.63;;
37097;SDS011;63608;49.572;12.348;2023-04-25T07:35:51;5.63;;;5.23;;
37097;SDS011;63608;49.572;12.348;2023-04-25T07:37:55;5.70;;;5.30;;
37097;SDS011;63608;49.572;12.348;2023-04-25T07:40:01;5.50;;;5.00;;
37097;SDS011;63608;49.572;12.348;2023-04-25T07:42:05;5.47;;;5.07;;
37097;SDS011;63608;49.572;12.348;2023-04-25T07:44:08;4.90;;;4.50;;
37097;SDS011;63608;49.572;12.348;2023-04-25T07:46:11;5.40;;;5.10;;
37097;SDS011;63608;49.572;12.348;2023-04-25T07:48:16;4.90;;;4.60;;
37097;SDS011;63608;49.572;12.348;2023-04-25T07:50:20;5.03;;;4.73;;
37097;SDS011;63608;49.572;12.348;2023-04-25T07:52:23;4.60;;;4.30;;
37097;SDS011;63608;49.572;12.348;2023-04-25T07:54:25;4.20;;;4.00;;
37097;SDS011;63608;49.572;12.348;2023-04-25T07:56:30;4.60;;;4.30;;
37097;SDS011;63608;49.572;12.348;2023-04-25T07:58:33;4.40;;;4.10;;
37097;SDS011;63608;49.572;12.348;2023-04-25T08:00:37;3.80;;;3.60;;
37097;SDS011;63608;49.572;12.348;2023-04-25T08:02:40;4.10;;;3.90;;
37097;SDS011;63608;49.572;12.348;2023-04-25T08:04:44;4.87;;;4.57;;
37097;SDS011;63608;49.572;12.348;2023-04-25T08:06:46;3.50;;;3.30;;
37097;SDS011;63608;49.572;12.348;2023-04-25T08:08:53;3.30;;;3.10;;
37097;SDS011;63608;49.572;12.348;2023-04-25T08:10:55;2.93;;;2.83;;
37097;SDS011;63608;49.572;12.348;2023-04-25T08:13:03;2.60;;;2.50;;
37097;SDS011;63608;49.572;12.348;2023-04-25T08:15:06;3.10;;;3.00;;
37097;SDS011;63608;49.572;12.348;2023-04-25T08:17:11;3.07;;;2.53;;
37097;SDS011;63608;49.572;12.348;2023-04-25T08:19:16;2.87;;;2.67;;
37097;SDS011;63608;49.572;12.348;2023-04-25T08:21:21;2.60;;;2.50;;
37097;SDS011;63608;49.572;12.348;2023-04-25T08:23:24;2.50;;;2.40;;
37097;SDS011;63608;49.572;12.348;2023-04-25T08:25:28;2.60;;;2.50;;
37097;SDS011;63608;49.572;12.348;2023-04-25T08:27:30;2.33;;;2.23;;
37097;SDS011;63608;49.572;12.348;2023-04-25T08:29:35;2.47;;;2.30;;
37097;SDS011;63608;49.572;12.348;2023-04-25T08:31:39;2.30;;;2.20;;
37097;SDS011;63608;49.572;12.348;2023-04-25T08:33:43;3.10;;;2.30;;
37097;SDS011;63608;49.572;12.348;2023-04-25T08:35:46;2.50;;;2.40;;
37097;SDS011;63608;49.572;12.348;2023-04-25T08:37:49;2.63;;;2.53;;
37097;SDS011;63608;49.572;12.348;2023-04-25T08:39:52;2.47;;;2.37;;
37097;SDS011;63608;49.572;12.348;2023-04-25T08:41:56;2.70;;;2.60;;
37097;SDS011;63608;49.572;12.348;2023-04-25T08:44:01;2.43;;;2.33;;
37097;SDS011;63608;49.572;12.348;2023-04-25T08:46:07;3.40;;;3.20;;
37097;SDS011;63608;49.572;12.348;2023-04-25T08:48:10;3.20;;;2.80;;
37097;SDS011;63608;49.572;12.348;2023-04-25T08:50:15;3.60;;;3.30;;
37097;SDS011;63608;49.572;12.348;2023-04-25T08:52:23;3.10;;;2.90;;
37097;SDS011;63608;49.572;12.348;2023-04-25T08:54:28;3.73;;;3.43;;
37097;SDS011;63608;49.572;12.348;2023-04-25T08:56:33;4.03;;;3.83;;
37097;SDS011;63608;49.572;12.348;2023-04-25T08:58:35;3.73;;;3.53;;
37097;SDS011;63608;49.572;12.348;2023-04-25T09:00:40;4.30;;;3.93;;
37097;SDS011;63608;49.572;12.348;2023-04-25T09:02:47;4.37;;;3.97;;
37097;SDS011;63608;49.572;12.348;2023-04-25T09:04:50;4.60;;;4.30;;
37097;SDS011;63608;49.572;12.348;2023-04-25T09:06:59;4.00;;;3.80;;
37097;SDS011;63608;49.572;12.348;2023-04-25T09:09:04;4.27;;;3.97;;
37097;SDS011;63608;49.572;12.348;2023-04-25T09:11:07;4.13;;;3.93;;
37097;SDS011;63608;49.572;12.348;2023-04-25T09:13:11;4.63;;;4.33;;
37097;SDS011;63608;49.572;12.348;2023-04-25T09:15:15;4.23;;;3.87;;
37097;SDS011;63608;49.572;12.348;2023-04-25T09:17:19;4.20;;;3.90;;
37097;SDS011;63608;49.572;12.348;2023-04-25T09:19:24;4.07;;;3.80;;
37097;SDS011;63608;49.572;12.348;2023-04-25T09:21:27;4.83;;;4.30;;
37097;SDS011;63608;49.572;12.348;2023-04-25T09:23:31;4.50;;;4.20;;
37097;SDS011;63608;49.572;12.348;2023-04-25T09:25:41;4.60;;;4.20;;
37097;SDS011;63608;49.572;12.348;2023-04-25T09:27:49;4.40;;;4.03;;
37097;SDS011;63608;49.572;12.348;2023-04-25T09:29:56;4.60;;;4.20;;
37097;SDS011;63608;49.572;12.348;2023-04-25T09:32:14;5.03;;;4.63;;
37097;SDS011;63608;49.572;12.348;2023-04-25T09:34:18;6.90;;;4.40;;
37097;SDS011;63608;49.572;12.348;2023-04-25T09:36:25;5.00;;;4.60;;
37097;SDS011;63608;49.572;12.348;2023-04-25T09:38:29;5.23;;;4.80;;
37097;SDS011;63608;49.572;12.348;2023-04-25T09:40:33;5.50;;;5.00;;
37097;SDS011;63608;49.572;12.348;2023-04-25T09:42:35;4.70;;;4.40;;
37097;SDS011;63608;49.572;12.348;2023-04-25T09:44:44;4.97;;;4.57;;
37097;SDS011;63608;49.572;12.348;2023-04-25T09:46:49;5.23;;;4.70;;
37097;SDS011;63608;49.572;12.348;2023-04-25T09:48:54;5.00;;;4.50;;
37097;SDS011;63608;49.572;12.348;2023-04-25T09:51:03;5.17;;;4.70;;
37097;SDS011;63608;49.572;12.348;2023-04-25T09:53:11;11.50;;;9.93;;
37097;SDS011;63608;49.572;12.348;2023-04-25T09:55:15;37.77;;;25.37;;
37097;SDS011;63608;49.572;12.348;2023-04-25T09:57:18;6.50;;;5.90;;
37097;SDS011;63608;49.572;12.348;2023-04-25T09:59:23;5.57;;;5.17;;
37097;SDS011;63608;49.572;12.348;2023-04-25T10:01:26;6.73;;;6.10;;
37097;SDS011;63608;49.572;12.348;2023-04-25T10:03:30;7.70;;;7.00;;
37097;SDS011;63608;49.572;12.348;2023-04-25T10:05:34;5.50;;;5.00;;
37097;SDS011;63608;49.572;12.348;2023-04-25T10:07:39;6.67;;;6.17;;
37097;SDS011;63608;49.572;12.348;2023-04-25T10:09:44;6.00;;;5.40;;
37097;SDS011;63608;49.572;12.348;2023-04-25T10:11:50;5.87;;;5.27;;
37097;SDS011;63608;49.572;12.348;2023-04-25T10:13:53;5.57;;;5.13;;
37097;SDS011;63608;49.572;12.348;2023-04-25T10:15:57;6.80;;;6.00;;
37097;SDS011;63608;49.572;12.348;2023-04-25T10:17:59;6.80;;;6.00;;
37097;SDS011;63608;49.572;12.348;2023-04-25T10:20:03;6.37;;;5.83;;
37097;SDS011;63608;49.572;12.348;2023-04-25T10:22:11;5.67;;;5.20;;
37097;SDS011;63608;49.572;12.348;2023-04-25T10:24:16;7.00;;;5.73;;
37097;SDS011;63608;49.572;12.348;2023-04-25T10:26:26;6.07;;;5.50;;
37097;SDS011;63608;49.572;12.348;2023-04-25T10:28:30;8.53;;;6.10;;
37097;SDS011;63608;49.572;12.348;2023-04-25T10:30:59;8.07;;;7.30;;
37097;SDS011;63608;49.572;12.348;2023-04-25T10:33:03;18.37;;;12.50;;
37097;SDS011;63608;49.572;12.348;2023-04-25T10:35:19;67.57;;;30.63;;
37097;SDS011;63608;49.572;12.348;2023-04-25T10:37:33;52.27;;;27.13;;
37097;SDS011;63608;49.572;12.348;2023-04-25T10:39:38;6.53;;;5.93;;
37097;SDS011;63608;49.572;12.348;2023-04-25T10:41:47;6.50;;;5.97;;
37097;SDS011;63608;49.572;12.348;2023-04-25T10:43:58;8.70;;;7.77;;
37097;SDS011;63608;49.572;12.348;2023-04-25T10:46:12;7.57;;;6.83;;
37097;SDS011;63608;49.572;12.348;2023-04-25T10:48:24;6.67;;;5.90;;
37097;SDS011;63608;49.572;12.348;2023-04-25T10:50:36;6.83;;;6.20;;
37097;SDS011;63608;49.572;12.348;2023-04-25T10:52:40;6.13;;;5.50;;
37097;SDS011;63608;49.572;12.348;2023-04-25T10:54:48;5.77;;;5.37;;
37097;SDS011;63608;49.572;12.348;2023-04-25T10:56:53;6.33;;;5.73;;
37097;SDS011;63608;49.572;12.348;2023-04-25T10:59:03;5.93;;;5.33;;
37097;SDS011;63608;49.572;12.348;2023-04-25T11:01:08;6.13;;;5.63;;
37097;SDS011;63608;49.572;12.348;2023-04-25T11:03:15;5.90;;;5.37;;
37097;SDS011;63608;49.572;12.348;2023-04-25T11:05:20;5.37;;;4.97;;
37097;SDS011;63608;49.572;12.348;2023-04-25T11:07:26;5.73;;;4.90;;
37097;SDS011;63608;49.572;12.348;2023-04-25T11:09:34;5.43;;;5.03;;
37097;SDS011;63608;49.572;12.348;2023-04-25T11:11:38;6.37;;;4.50;;
37097;SDS011;63608;49.572;12.348;2023-04-25T11:13:42;5.53;;;5.03;;
37097;SDS011;63608;49.572;12.348;2023-04-25T11:15:45;4.03;;;3.83;;
37097;SDS011;63608;49.572;12.348;2023-04-25T11:17:48;4.60;;;4.27;;
37097;SDS011;63608;49.572;12.348;2023-04-25T11:19:56;4.07;;;3.77;;
37097;SDS011;63608;49.572;12.348;2023-04-25T11:21:59;4.97;;;4.57;;
37097;SDS011;63608;49.572;12.348;2023-04-25T11:24:02;6.57;;;5.87;;
37097;SDS011;63608;49.572;12.348;2023-04-25T11:26:07;3.70;;;3.50;;
37097;SDS011;63608;49.572;12.348;2023-04-25T11:28:10;4.53;;;3.83;;
37097;SDS011;63608;49.572;12.348;2023-04-25T11:30:17;4.50;;;4.10;;
37097;SDS011;63608;49.572;12.348;2023-04-25T11:32:21;4.67;;;4.27;;
37097;SDS011;63608;49.572;12.348;2023-04-25T11:34:23;3.57;;;3.33;;
37097;SDS011;63608;49.572;12.348;2023-04-25T11:36:26;3.70;;;3.47;;
37097;SDS011;63608;49.572;12.348;2023-04-25T11:38:30;4.00;;;3.80;;
37097;SDS011;63608;49.572;12.348;2023-04-25T11:40:35;4.10;;;3.80;;
37097;SDS011;63608;49.572;12.348;2023-04-25T11:42:39;4.30;;;4.00;;
37097;SDS011;63608;49.572;12.348;2023-04-25T11:44:47;4.00;;;3.70;;
37097;SDS011;63608;49.572;12.348;2023-04-25T11:46:52;3.60;;;3.40;;
37097;SDS011;63608;49.572;12.348;2023-04-25T11:48:56;4.10;;;3.80;;
37097;SDS011;63608;49.572;12.348;2023-04-25T11:51:00;4.40;;;4.10;;
37097;SDS011;63608;49.572;12.348;2023-04-25T11:53:04;3.83;;;3.57;;
37097;SDS011;63608;49.572;12.348;2023-04-25T11:55:09;3.90;;;3.60;;
37097;SDS011;63608;49.572;12.348;2023-04-25T11:57:12;6.77;;;6.27;;
37097;SDS011;63608;49.572;12.348;2023-04-25T11:59:15;3.80;;;3.60;;
37097;SDS011;63608;49.572;12.348;2023-04-25T12:01:24;4.50;;;4.20;;
37097;SDS011;63608;49.572;12.348;2023-04-25T12:03:32;3.93;;;3.73;;
37097;SDS011;63608;49.572;12.348;2023-04-25T12:05:35;4.10;;;3.60;;
37097;SDS011;63608;49.572;12.348;2023-04-25T12:07:40;3.93;;;3.63;;
37097;SDS011;63608;49.572;12.348;2023-04-25T12:09:51;3.83;;;3.63;;
37097;SDS011;63608;49.572;12.348;2023-04-25T12:11:57;4.50;;;4.20;;
37097;SDS011;63608;49.572;12.348;2023-04-25T12:14:03;3.80;;;3.50;;